Andover, Pennsylvania
Current Conditions -  °F | °C
As of 11:00 AM on Monday 26 Jan 2015 (Local Time) from KHGR Reporting Station
Haze Haze  
Wind Chill: 20°   Ceiling: 1800
Heat Index: 29°   Visibility: 6mi
Dew Point: 24°   Wind: 9mph
Humidity: 82%   Direction: 40°NE
Pressure: 29.8"   Gusts: NA
Location:  39.973°N, 77.9661°W
Report Text: KHGR 261600Z 04008KT 6SM HZ OVC018 M02/M04 A2980 RMK AO2 T10171044
Loading
Personal Weather Stations






























Interactive Weather Map New forecast layout! Learn more

10-Day Weather Forecast

Advertisements
Track Severe Weather on mobile